Startpagina
METAR-TAF:

METAR-TAF

Vliegvelden :

Riverton Regional Airport

Riverton, Wyoming, Verenigde Staten

breedte: 43-03-43N, lengte: 108-26-47W, hoogte: 1684 m

Actueel weer

Dit bericht is 18 minuten geleden gemaakt, om 16:53 UTC
Wind 5 kt uit het noordoosten
Temperatuur 9°C
Vochtigheid 34%
Druk 1026 hPa
Zicht: 16.1 km
Onbewolkt

METAR: KRIW 181653Z AUTO 04005KT 10SM CLR 09/M06 A3029 RMK AO2 SLP240 T00941056

Tijdstip: 11:11 (17:11 UTC)

Verwachting

Dit bericht is 5 uur en het 42 minuten geleden gemaakt, om 11:29 UTC
Verwachting geldig van 18 om 12 UTC tot 19 om 12 UTC
Wind 6 kt uit het noordoosten
Zicht: 10 km
Onbewolkt
Van 18 om 2200 UTC
Wind 6 kt uit het zuiden
Zicht: 10 km
Onbewolkt
Van 19 om 0300 UTC
Wind 8 kt uit het westnoordwesten
Zicht: 10 km
Onbewolkt

TAF: KRIW 181129Z 1812/1912 04006KT P6SM SKC FM182200 17006KT P6SM SKC FM190300 29008KT P6SM SKC

Waarnemingen en weersverwachtingen van meer dan 4000 vliegvelden (METAR en TAF).

De beschikbare stations zijn de gele en rode punten op de kaart.

Ga met uw muis naar het station om de naam te zien.

Klik dan om waarnemingen en weersverwachtingen te zien.

kaart wijzigen: klik op de groene knoppen met een zwart kruis om in te zoomen, op de groene knop met een streepje om uit te zoomen of op de groene pijlen voor aangrenzende kaarten.


METAR-TAF: